Time;durP1;ratioP1;P1;durP2;ratioP2;P2;SDS_P1;SDS_P2;PMS_P1;PMS_P2;Temp;Humidity;BMP_temperature;BMP_pressure;BME280_temperature;BME280_humidity;BME280_pressure;Samples;Min_cycle;Max_cycle;Signal;HPM_P1;HPM_P2
2021/04/01 00:01:33;;;;;;;4.05;3.05;;;15.20;49.10;;;;;;5074686;28;20024;-73
2021/04/01 00:03:59;;;;;;;5.05;2.92;;;15.20;49.10;;;;;;5074617;28;20126;-72
2021/04/01 00:06:24;;;;;;;5.05;2.97;;;15.20;49.10;;;;;;5073286;28;20031;-72
2021/04/01 00:08:50;;;;;;;5.82;3.55;;;15.20;49.10;;;;;;5075116;28;20067;-72
2021/04/01 00:11:15;;;;;;;5.63;3.50;;;15.20;49.10;;;;;;5074443;28;20511;-73
2021/04/01 00:13:41;;;;;;;4.80;3.10;;;15.30;49.20;;;;;;5074525;28;20038;-72
2021/04/01 00:16:07;;;;;;;5.90;3.38;;;15.20;49.20;;;;;;5072651;28;20024;-72
2021/04/01 00:18:32;;;;;;;6.10;3.35;;;15.20;49.40;;;;;;5074522;28;20477;-72
2021/04/01 00:20:58;;;;;;;5.72;3.15;;;15.20;49.40;;;;;;5074394;28;20400;-72
2021/04/01 00:23:24;;;;;;;6.25;3.40;;;15.20;49.50;;;;;;5072979;28;20032;-72
2021/04/01 00:25:50;;;;;;;5.18;3.47;;;15.10;49.50;;;;;;5072858;28;20016;-72
2021/04/01 00:28:15;;;;;;;6.13;2.95;;;15.10;49.50;;;;;;5074648;28;20077;-73
2021/04/01 00:30:41;;;;;;;4.47;2.72;;;15.20;49.60;;;;;;5074220;28;20024;-73
2021/04/01 00:33:07;;;;;;;5.93;3.67;;;15.20;49.60;;;;;;5072818;28;20497;-72
2021/04/01 00:35:32;;;;;;;5.30;2.85;;;15.20;49.50;;;;;;5074478;28;20473;-73
2021/04/01 00:37:58;;;;;;;4.25;2.80;;;15.30;49.50;;;;;;5074024;28;20024;-72
2021/04/01 00:40:25;;;;;;;5.03;3.22;;;15.20;49.40;;;;;;5073940;28;20027;-72
2021/04/01 00:42:52;;;;;;;5.72;3.00;;;15.30;49.40;;;;;;5072597;28;20024;-72
2021/04/01 00:45:19;;;;;;;5.55;3.38;;;15.30;49.30;;;;;;5073798;28;20100;-73
2021/04/01 00:47:50;;;;;;;6.15;3.67;;;15.40;49.40;;;;;;5074326;28;20049;-72
2021/04/01 00:50:26;;;;;;;6.18;4.13;;;15.30;49.50;;;;;;5073794;28;20133;-72
2021/04/01 00:52:52;;;;;;;6.32;3.30;;;15.30;50.30;;;;;;5073744;28;20016;-72
2021/04/01 00:55:18;;;;;;;6.00;3.85;;;15.20;49.80;;;;;;5074119;28;20024;-72
2021/04/01 00:57:47;;;;;;;7.72;3.63;;;15.20;50.50;;;;;;5072422;28;20031;-73
2021/04/01 01:00:16;;;;;;;6.97;3.92;;;15.20;49.90;;;;;;5072288;28;20016;-72
2021/04/01 01:02:41;;;;;;;5.88;3.88;;;15.20;49.90;;;;;;5073450;28;21888;-72
2021/04/01 01:05:10;;;;;;;6.57;3.90;;;15.20;49.90;;;;;;5073480;28;20063;-72
2021/04/01 01:07:37;;;;;;;6.77;4.13;;;15.20;50.00;;;;;;5073990;28;20016;-73
2021/04/01 01:10:14;;;;;;;7.18;4.20;;;15.20;50.10;;;;;;5073691;28;20024;-73
2021/04/01 01:12:41;;;;;;;7.32;3.85;;;15.20;50.10;;;;;;5073649;28;20090;-72
2021/04/01 01:15:08;;;;;;;6.30;4.03;;;15.20;50.20;;;;;;5073650;28;20029;-72
2021/04/01 01:17:34;;;;;;;8.20;4.20;;;15.20;50.30;;;;;;5073560;28;20103;-72
2021/04/01 01:20:00;;;;;;;7.60;4.30;;;15.20;50.40;;;;;;5073242;28;20419;-72
2021/04/01 01:22:26;;;;;;;5.47;3.35;;;15.20;50.40;;;;;;5072894;28;20120;-72
2021/04/01 01:24:52;;;;;;;5.53;3.53;;;15.20;50.50;;;;;;5073330;28;20028;-72
2021/04/01 01:27:20;;;;;;;6.38;3.70;;;15.20;50.50;;;;;;5071548;28;20485;-72
2021/04/01 01:29:49;;;;;;;6.70;3.88;;;15.10;50.50;;;;;;5071832;28;20028;-72
2021/04/01 01:32:19;;;;;;;5.57;3.70;;;15.00;50.50;;;;;;5073162;28;20437;-72
2021/04/01 01:34:46;;;;;;;5.00;3.28;;;15.10;50.60;;;;;;5073208;28;20016;-72
2021/04/01 01:37:12;;;;;;;6.13;3.45;;;15.10;50.50;;;;;;5073046;28;20078;-72
2021/04/01 01:39:38;;;;;;;4.65;3.30;;;15.10;50.60;;;;;;5071772;28;20116;-73
2021/04/01 01:42:04;;;;;;;5.20;2.92;;;15.10;50.70;;;;;;5073076;28;20060;-72
2021/04/01 01:44:30;;;;;;;7.68;4.25;;;15.10;50.80;;;;;;5073473;28;20050;-72
2021/04/01 01:46:57;;;;;;;5.95;3.92;;;15.00;50.80;;;;;;5073518;28;20013;-72
2021/04/01 01:49:23;;;;;;;6.70;4.80;;;14.90;50.90;;;;;;5072929;28;20031;-72
2021/04/01 01:51:49;;;;;;;7.32;4.00;;;14.90;51.20;;;;;;5072905;28;20099;-73
2021/04/01 01:54:14;;;;;;;6.13;3.85;;;14.80;51.30;;;;;;5071669;28;20090;-73
2021/04/01 01:56:40;;;;;;;4.93;3.47;;;14.80;51.30;;;;;;5073345;28;20024;-72
2021/04/01 01:59:06;;;;;;;7.70;4.18;;;14.80;51.30;;;;;;5072926;28;20021;-73
2021/04/01 02:01:31;;;;;;;5.15;3.08;;;14.80;51.30;;;;;;5072886;28;20062;-72
2021/04/01 02:04:04;;;;;;;4.95;3.40;;;14.80;51.30;;;;;;5072796;28;20033;-72
2021/04/01 02:06:31;;;;;;;5.38;3.55;;;14.90;51.30;;;;;;5072857;28;20027;-72
2021/04/01 02:08:58;;;;;;;7.40;3.30;;;15.00;51.20;;;;;;5073277;28;20027;-72
2021/04/01 02:11:25;;;;;;;5.53;3.70;;;15.10;51.00;;;;;;5072795;28;20024;-72
2021/04/01 02:13:51;;;;;;;6.82;3.97;;;15.10;50.90;;;;;;5072732;28;20044;-72
2021/04/01 02:16:17;;;;;;;6.72;3.90;;;15.20;50.80;;;;;;5072765;28;20017;-72
2021/04/01 02:18:42;;;;;;;8.55;4.80;;;15.20;50.80;;;;;;5073202;28;20460;-72
2021/04/01 02:21:10;;;;;;;5.25;3.47;;;15.30;51.30;;;;;;5072511;28;20104;-72
2021/04/01 02:23:37;;;;;;;6.40;3.97;;;15.30;50.50;;;;;;5073161;28;20106;-72
2021/04/01 02:26:05;;;;;;;5.80;3.40;;;15.30;50.60;;;;;;5073148;28;20400;-72
2021/04/01 02:28:32;;;;;;;7.30;4.35;;;15.40;50.70;;;;;;5072630;28;20020;-72
2021/04/01 02:31:00;;;;;;;5.78;3.72;;;15.40;50.50;;;;;;5072593;28;20029;-72
2021/04/01 02:33:30;;;;;;;5.00;3.80;;;15.50;50.30;;;;;;5072554;28;20021;-72
2021/04/01 02:35:56;;;;;;;7.85;4.05;;;15.60;50.20;;;;;;5071164;28;20469;-72
2021/04/01 02:38:23;;;;;;;6.13;3.70;;;15.70;50.20;;;;;;5071320;28;20032;-72
2021/04/01 02:40:50;;;;;;;6.32;3.47;;;15.60;50.20;;;;;;5076158;28;20059;-72
2021/04/01 02:43:22;;;;;;;7.00;3.85;;;15.60;50.40;;;;;;5076274;28;20159;-72
2021/04/01 02:45:47;;;;;;;5.68;3.90;;;15.50;50.40;;;;;;5076697;28;20052;-73
2021/04/01 02:48:13;;;;;;;7.60;4.72;;;15.50;50.50;;;;;;5076112;28;20055;-73
2021/04/01 02:50:38;;;;;;;9.48;5.55;;;15.50;50.60;;;;;;5076293;28;20016;-73
2021/04/01 02:53:04;;;;;;;8.88;5.45;;;15.40;50.60;;;;;;5076002;28;20569;-72
2021/04/01 02:55:30;;;;;;;9.18;4.72;;;15.40;50.60;;;;;;5076218;28;20101;-73
2021/04/01 02:57:55;;;;;;;8.02;5.07;;;15.40;50.70;;;;;;5074650;28;20108;-72
2021/04/01 03:00:25;;;;;;;8.90;5.63;;;15.30;50.80;;;;;;5074601;28;20045;-72
2021/04/01 03:02:55;;;;;;;10.00;5.80;;;15.20;50.90;;;;;;5074477;28;20112;-72
2021/04/01 03:05:21;;;;;;;10.00;5.80;;;15.20;51.10;;;;;;5075754;28;20024;-72
2021/04/01 03:07:46;;;;;;;9.38;5.30;;;15.00;51.20;;;;;;5076294;28;20032;-72
2021/04/01 03:10:12;;;;;;;10.45;6.30;;;14.90;51.30;;;;;;5074493;28;20021;-72
2021/04/01 03:12:38;;;;;;;8.75;5.70;;;14.80;51.50;;;;;;5076241;28;20035;-73
2021/04/01 03:15:06;;;;;;;10.35;5.60;;;14.70;51.70;;;;;;5075623;28;20032;-72
2021/04/01 03:17:32;;;;;;;8.60;5.43;;;14.60;51.90;;;;;;5075459;28;20052;-72
2021/04/01 03:19:58;;;;;;;10.82;6.75;;;14.50;52.00;;;;;;5074188;28;20025;-72
2021/04/01 03:22:23;;;;;;;12.35;7.90;;;14.40;52.10;;;;;;5075396;28;20519;-73
2021/04/01 03:24:49;;;;;;;13.35;7.63;;;14.30;52.10;;;;;;5075386;28;20517;-72
2021/04/01 03:27:14;;;;;;;9.50;5.35;;;14.30;52.10;;;;;;5075416;28;20024;-72
2021/04/01 03:29:40;;;;;;;9.50;6.45;;;14.20;52.10;;;;;;5075397;28;20497;-72
2021/04/01 03:32:06;;;;;;;11.15;6.40;;;14.20;52.20;;;;;;5075164;28;20473;-72
2021/04/01 03:34:31;;;;;;;8.85;6.40;;;14.10;52.20;;;;;;5075239;28;20028;-72
2021/04/01 03:36:57;;;;;;;10.07;6.35;;;14.10;52.30;;;;;;5075792;28;20028;-72
2021/04/01 03:39:23;;;;;;;8.85;5.45;;;14.00;52.40;;;;;;5075734;28;20461;-72
2021/04/01 03:41:49;;;;;;;11.10;6.40;;;13.90;52.40;;;;;;5075098;28;20099;-72
2021/04/01 03:44:14;;;;;;;9.00;5.18;;;13.90;52.50;;;;;;5075546;28;20041;-72
2021/04/01 03:46:40;;;;;;;9.02;4.80;;;13.90;52.50;;;;;;5074925;28;20481;-72
2021/04/01 03:49:05;;;;;;;10.75;6.18;;;13.90;52.50;;;;;;5073716;28;20024;-72
2021/04/01 03:51:31;;;;;;;8.55;5.32;;;13.90;52.40;;;;;;5074183;28;20021;-73
2021/04/01 03:53:57;;;;;;;8.88;4.93;;;13.90;52.30;;;;;;5073625;28;20025;-72
2021/04/01 03:56:22;;;;;;;7.63;5.00;;;13.90;52.30;;;;;;5073570;28;20488;-72
2021/04/01 03:59:01;;;;;;;8.20;4.75;;;13.90;52.30;;;;;;5074822;28;20093;-72
2021/04/01 04:12:25;;;;;;;6.53;4.13;;;13.80;52.40;;;;;;5074844;28;20029;-73
2021/04/01 04:15:03;;;;;;;6.95;4.25;;;13.80;52.40;;;;;;5074760;28;20096;-72
2021/04/01 04:17:29;;;;;;;8.45;5.60;;;13.80;52.40;;;;;;5074364;28;20500;-72
2021/04/01 04:19:55;;;;;;;6.10;3.78;;;13.80;52.50;;;;;;5074658;28;20017;-72
2021/04/01 04:22:20;;;;;;;8.52;3.70;;;13.80;52.60;;;;;;5074106;28;20098;-72
2021/04/01 04:24:46;;;;;;;6.10;3.63;;;13.70;52.60;;;;;;5074221;28;20453;-72
2021/04/01 04:27:59;;;;;;;5.90;3.65;;;13.70;52.80;;;;;;5074262;28;20023;-72
2021/04/01 04:30:04;;;;;;;5.50;3.30;;;13.50;52.80;;;;;;5072880;28;20120;-72
2021/04/01 04:32:31;;;;;;;5.65;3.25;;;13.40;53.10;;;;;;5074612;28;20460;-72
2021/04/01 04:34:57;;;;;;;7.70;3.95;;;13.30;53.20;;;;;;5074355;28;20021;-72
2021/04/01 04:37:24;;;;;;;6.32;3.90;;;13.20;53.40;;;;;;5074237;28;20096;-72
2021/04/01 04:39:49;;;;;;;7.95;5.03;;;13.10;54.00;;;;;;5074239;28;20044;-72
2021/04/01 04:42:15;;;;;;;7.43;5.15;;;13.00;53.50;;;;;;5074098;28;20021;-72
2021/04/01 04:44:41;;;;;;;10.80;6.13;;;13.00;53.40;;;;;;5074059;28;20037;-72
2021/04/01 04:47:07;;;;;;;11.93;6.90;;;13.10;53.40;;;;;;5074008;28;20108;-72
2021/04/01 04:49:32;;;;;;;9.75;6.00;;;13.10;53.30;;;;;;5072382;28;20116;-73
2021/04/01 04:51:58;;;;;;;12.45;6.20;;;13.20;53.30;;;;;;5073670;28;20457;-73
2021/04/01 04:54:28;;;;;;;8.35;5.00;;;13.20;53.30;;;;;;5074028;28;20472;-72
2021/04/01 04:56:55;;;;;;;9.55;6.13;;;13.20;53.40;;;;;;5073530;28;20111;-73
2021/04/01 04:59:30;;;;;;;8.93;5.82;;;13.20;53.50;;;;;;5073918;28;20381;-72
2021/04/01 05:04:41;;;;;;;9.20;6.00;;;13.20;53.70;;;;;;5073881;28;20047;-73
2021/04/01 05:07:07;;;;;;;8.52;5.03;;;13.10;53.70;;;;;;5073857;28;20021;-72
2021/04/01 05:09:33;;;;;;;8.02;4.50;;;13.10;53.80;;;;;;5073327;28;20027;-72
2021/04/01 05:11:58;;;;;;;7.40;5.10;;;13.10;53.90;;;;;;5073819;28;20058;-72
2021/04/01 05:14:24;;;;;;;7.53;4.82;;;13.10;54.00;;;;;;5073151;28;20048;-73
2021/04/01 05:16:50;;;;;;;8.68;4.55;;;13.10;54.10;;;;;;5073274;28;20024;-72
2021/04/01 05:19:17;;;;;;;6.95;3.70;;;13.00;54.10;;;;;;5073651;28;20029;-72
2021/04/01 05:21:50;;;;;;;8.68;5.15;;;13.00;54.20;;;;;;5073368;28;20154;-73
2021/04/01 05:24:19;;;;;;;7.22;4.47;;;13.10;54.20;;;;;;5072771;28;20544;-72
2021/04/01 05:29:28;;;;;;;6.22;3.65;;;13.10;54.20;;;;;;5073702;28;20453;-71
2021/04/01 05:31:55;;;;;;;6.88;3.85;;;13.10;54.30;;;;;;5072454;28;20346;-71
2021/04/01 05:34:22;;;;;;;6.03;3.30;;;13.00;54.40;;;;;;5073018;28;20474;-72
2021/04/01 05:36:48;;;;;;;6.25;4.22;;;13.00;54.50;;;;;;5072906;28;20054;-72
2021/04/01 05:39:18;;;;;;;6.75;3.80;;;12.80;54.70;;;;;;5073458;28;20025;-72
2021/04/01 05:41:49;;;;;;;5.13;3.13;;;12.70;54.90;;;;;;5072868;28;20025;-72
2021/04/01 06:05:44;;;;;;;15.30;7.55;;;12.80;55.20;;;;;;5050447;28;20048;-73
2021/04/01 06:08:17;;;;;;;11.40;6.85;;;12.70;55.40;;;;;;5050365;28;20029;-73
2021/04/01 06:10:42;;;;;;;9.48;6.28;;;12.70;55.60;;;;;;5050406;28;20033;-73
2021/04/01 06:13:11;;;;;;;11.15;6.63;;;12.70;55.70;;;;;;5050259;28;20052;-73
2021/04/01 06:15:37;;;;;;;16.02;8.82;;;12.70;55.70;;;;;;5054130;28;20481;-73
2021/04/01 06:18:11;;;;;;;15.77;9.60;;;12.60;55.90;;;;;;5054401;28;20032;-72
2021/04/01 06:20:39;;;;;;;18.15;10.88;;;12.60;56.20;;;;;;5054322;28;20033;-73
2021/04/01 06:23:05;;;;;;;23.95;14.18;;;12.60;56.60;;;;;;5054204;28;20453;-73
2021/04/01 06:25:39;;;;;;;17.98;12.80;;;12.60;57.00;;;;;;5054291;28;20130;-73
2021/04/01 06:28:09;;;;;;;17.35;11.55;;;12.60;57.20;;;;;;5054882;28;20033;-73
2021/04/01 06:30:51;;;;;;;18.17;10.55;;;12.50;57.20;;;;;;5054854;28;20043;-73
2021/04/01 06:33:22;;;;;;;16.75;10.68;;;12.50;57.30;;;;;;5054742;28;20033;-73
2021/04/01 06:35:52;;;;;;;16.92;11.32;;;12.40;57.40;;;;;;5054096;28;20159;-73
2021/04/01 06:38:20;;;;;;;15.90;9.40;;;12.40;57.60;;;;;;5054604;28;20032;-73
2021/04/01 06:40:50;;;;;;;14.70;9.15;;;12.40;57.70;;;;;;5037446;28;20033;-73
2021/04/01 06:43:22;;;;;;;22.23;12.95;;;12.30;57.80;;;;;;5071145;28;20087;-73
2021/04/01 06:45:55;;;;;;;20.00;12.27;;;12.30;58.00;;;;;;5076423;28;20053;-74
2021/04/01 06:48:27;;;;;;;24.92;15.38;;;12.30;58.10;;;;;;5074601;28;20020;-74
2021/04/01 06:51:08;;;;;;;24.15;13.32;;;12.20;58.30;;;;;;5075966;28;20492;-73
2021/04/01 06:53:52;;;;;;;18.42;11.60;;;12.30;58.50;;;;;;5075749;28;20056;-73
2021/04/01 06:59:22;;;;;;;19.63;12.02;;;12.30;58.20;;;;;;5075940;28;20039;-74
2021/04/01 07:01:55;;;;;;;17.13;11.98;;;12.40;58.20;;;;;;5075429;28;20103;-73
2021/04/01 07:04:23;;;;;;;17.17;11.50;;;12.40;58.30;;;;;;5075400;28;20097;-73
2021/04/01 07:06:53;;;;;;;16.23;10.45;;;12.40;58.30;;;;;;5073976;28;20028;-73
2021/04/01 07:12:23;;;;;;;12.82;8.52;;;12.50;58.40;;;;;;5075383;28;20110;-74
2021/04/01 07:14:51;;;;;;;18.48;12.68;;;12.50;58.20;;;;;;5075492;28;20020;-73
2021/04/01 07:17:25;;;;;;;25.15;13.50;;;12.60;58.20;;;;;;5073945;28;20385;-73
2021/04/01 07:47:30;;;;;;;16.42;9.82;;;13.10;58.50;;;;;;5075287;28;20028;-74
2021/04/01 07:49:59;;;;;;;16.00;10.10;;;13.20;58.30;;;;;;5074966;28;20469;-74
2021/04/01 07:52:27;;;;;;;13.67;8.33;;;13.30;58.30;;;;;;5073611;28;20025;-74
2021/04/01 08:00:41;;;;;;;11.00;6.72;;;13.60;58.70;;;;;;5072232;28;20056;-74
2021/04/01 08:06:05;;;;;;;13.73;8.07;;;13.70;58.10;;;;;;5074701;28;20401;-74
2021/04/01 08:08:36;;;;;;;19.38;11.55;;;13.70;58.00;;;;;;5074540;28;20031;-74
2021/04/01 08:11:05;;;;;;;14.50;8.75;;;13.80;58.00;;;;;;5073254;28;20020;-74
2021/04/01 08:13:34;;;;;;;15.10;9.02;;;13.90;57.90;;;;;;5073214;28;20077;-74
2021/04/01 08:16:05;;;;;;;15.00;10.38;;;13.90;57.90;;;;;;5074474;28;20016;-74
2021/04/01 08:18:36;;;;;;;19.38;13.57;;;14.00;57.80;;;;;;5074414;28;20029;-73
2021/04/01 08:21:06;;;;;;;19.20;11.68;;;14.10;57.70;;;;;;5074157;28;20481;-73
2021/04/01 08:23:39;;;;;;;18.25;11.88;;;14.20;57.70;;;;;;5072823;28;20378;-73
2021/04/01 08:26:21;;;;;;;18.33;12.20;;;14.30;57.60;;;;;;5074743;28;20017;-74
2021/04/01 08:34:17;;;;;;;16.65;10.68;;;14.50;57.20;;;;;;5074943;28;20024;-73
2021/04/01 08:36:51;;;;;;;13.70;9.02;;;14.60;57.20;;;;;;5073579;28;20027;-74
2021/04/01 08:39:18;;;;;;;13.45;9.20;;;14.70;57.00;;;;;;5072541;28;20024;-74
2021/04/01 08:42:05;;;;;;;14.07;9.90;;;14.80;56.90;;;;;;5072654;28;20040;-74
2021/04/01 08:44:45;;;;;;;17.83;11.88;;;15.00;56.90;;;;;;5072446;28;20036;-75
2021/04/01 08:47:22;;;;;;;12.88;9.38;;;15.00;56.70;;;;;;5072812;28;20024;-75
2021/04/01 08:50:03;;;;;;;14.55;9.55;;;15.20;56.60;;;;;;5073422;28;20025;-74
2021/04/01 08:52:40;;;;;;;13.27;9.73;;;15.20;56.40;;;;;;5072323;28;20434;-74
2021/04/01 08:55:17;;;;;;;12.23;8.25;;;15.20;56.50;;;;;;5072375;28;20033;-74
2021/04/01 08:58:11;;;;;;;14.32;9.95;;;15.20;56.50;;;;;;5073485;28;20095;-74
2021/04/01 09:00:42;;;;;;;19.02;13.55;;;15.30;56.50;;;;;;5072111;28;20032;-74
2021/04/01 09:03:08;;;;;;;16.20;11.73;;;15.30;56.40;;;;;;5072294;28;20028;-74
2021/04/01 09:05:33;;;;;;;16.02;9.82;;;15.30;56.50;;;;;;5073423;28;20408;-74
2021/04/01 09:08:02;;;;;;;15.70;11.85;;;15.30;56.40;;;;;;5073340;28;20021;-75
2021/04/01 09:10:35;;;;;;;15.67;12.00;;;15.40;56.30;;;;;;5073808;28;20016;-75
2021/04/01 09:18:20;;;;;;;20.55;12.55;;;15.50;56.10;;;;;;5073354;28;20090;-75
2021/04/01 09:20:47;;;;;;;18.95;14.00;;;15.60;56.10;;;;;;5071903;28;20115;-75
2021/04/01 09:23:14;;;;;;;15.27;10.27;;;15.60;56.00;;;;;;5071491;28;20040;-75
2021/04/01 09:25:44;;;;;;;21.77;13.45;;;15.70;55.90;;;;;;5071513;28;20032;-77
2021/04/01 09:28:10;;;;;;;21.38;14.73;;;15.80;55.80;;;;;;5071600;28;20029;-76
2021/04/01 09:30:37;;;;;;;18.08;12.63;;;15.80;55.70;;;;;;5073314;28;20028;-74
2021/04/01 09:33:35;;;;;;;16.67;10.55;;;15.80;55.70;;;;;;5073044;28;20050;-75
2021/04/01 09:36:16;;;;;;;23.53;16.87;;;15.90;55.60;;;;;;5071662;28;20028;-75
2021/04/01 09:39:06;;;;;;;17.63;12.52;;;15.80;55.40;;;;;;5073479;28;20028;-75
2021/04/01 09:41:35;;;;;;;17.17;11.95;;;15.70;55.70;;;;;;5072941;28;20111;-75
2021/04/01 09:44:04;;;;;;;;;;;15.70;55.70;;;;;;5073620;28;20024;-74
2021/04/01 09:46:31;;;;;;;17.85;12.77;;;15.70;55.70;;;;;;5071647;28;19954;-75
2021/04/01 09:49:04;;;;;;;16.40;11.88;;;15.70;55.80;;;;;;5070841;28;20019;-75
2021/04/01 09:51:34;;;;;;;16.40;11.80;;;15.70;55.70;;;;;;5072816;28;20569;-75
2021/04/01 09:54:00;;;;;;;17.15;12.07;;;15.70;55.60;;;;;;5072878;28;20032;-76
2021/04/01 09:56:31;;;;;;;19.20;13.98;;;15.70;55.70;;;;;;5072931;28;20036;-76
2021/04/01 09:58:58;;;;;;;16.70;10.88;;;15.70;55.80;;;;;;5072913;28;20071;-76
2021/04/01 10:01:27;;;;;;;13.88;9.82;;;15.70;55.80;;;;;;5072764;28;20035;-75
2021/04/01 10:04:20;;;;;;;13.82;9.90;;;15.80;55.80;;;;;;5072568;28;20548;-75
2021/04/01 10:06:50;;;;;;;12.00;8.77;;;15.80;55.60;;;;;;5071635;28;20063;-75
2021/04/01 10:09:19;;;;;;;16.42;11.05;;;15.80;55.50;;;;;;5071493;28;20492;-77
2021/04/01 10:11:47;;;;;;;14.60;11.48;;;15.80;55.70;;;;;;5072754;28;20028;-76
2021/04/01 10:14:13;;;;;;;14.40;9.85;;;15.60;55.80;;;;;;5073068;28;20423;-75
2021/04/01 10:16:57;;;;;;;15.48;10.90;;;15.60;56.00;;;;;;5072913;28;20083;-75
2021/04/01 10:19:27;;;;;;;15.38;11.20;;;15.60;56.00;;;;;;5071315;28;20027;-75
2021/04/01 10:21:53;;;;;;;17.48;12.57;;;15.60;56.00;;;;;;5072480;28;20407;-75
2021/04/01 10:24:28;;;;;;;18.85;12.30;;;15.50;56.00;;;;;;5071290;28;20090;-75
2021/04/01 10:27:00;;;;;;;17.05;10.00;;;15.50;56.10;;;;;;5073122;28;20019;-74
2021/04/01 10:29:39;;;;;;;12.93;8.65;;;15.40;56.10;;;;;;5071316;28;20032;-75
2021/04/01 10:32:07;;;;;;;9.75;8.07;;;15.50;56.10;;;;;;5071375;28;20020;-75
2021/04/01 10:35:02;;;;;;;10.50;7.50;;;15.60;55.90;;;;;;5072391;28;20108;-75
2021/04/01 10:37:30;;;;;;;8.68;5.68;;;15.70;55.70;;;;;;5071266;28;20036;-75
2021/04/01 10:39:59;;;;;;;8.38;5.35;;;15.60;55.60;;;;;;5071154;28;20026;-75
2021/04/01 10:42:28;;;;;;;6.43;4.38;;;15.80;55.60;;;;;;5072676;28;20021;-75
2021/04/01 10:45:08;;;;;;;6.70;5.07;;;15.90;55.40;;;;;;5055110;28;20107;-75
2021/04/01 10:48:01;;;;;;;7.25;4.60;;;16.00;55.20;;;;;;5072343;28;20086;-74
2021/04/01 10:50:28;;;;;;;7.60;4.68;;;16.00;55.10;;;;;;5072324;28;20039;-75
2021/04/01 10:52:57;;;;;;;7.32;4.28;;;16.00;55.10;;;;;;5072206;28;20385;-74
2021/04/01 10:55:31;;;;;;;5.55;3.10;;;16.00;55.20;;;;;;5072229;28;20039;-75
2021/04/01 10:58:08;;;;;;;5.00;2.15;;;16.00;55.10;;;;;;5072283;28;20065;-75
2021/04/01 11:00:35;;;;;;;3.17;2.50;;;16.00;55.10;;;;;;5072499;28;20043;-76
2021/04/01 11:03:04;;;;;;;4.07;2.60;;;16.10;55.10;;;;;;5074384;28;20024;-73
2021/04/01 11:05:32;;;;;;;2.55;1.92;;;16.10;55.20;;;;;;5074447;28;20025;-74
2021/04/01 11:08:11;;;;;;;2.35;1.60;;;16.20;55.00;;;;;;5075762;28;20023;-74
2021/04/01 11:10:38;;;;;;;1.60;1.50;;;16.30;54.90;;;;;;5074210;28;20021;-75
2021/04/01 11:13:07;;;;;;;2.25;1.60;;;16.20;54.90;;;;;;5075685;28;20039;-74
2021/04/01 11:15:35;;;;;;;1.67;1.48;;;16.30;54.90;;;;;;5076122;28;20016;-74
2021/04/01 11:18:04;;;;;;;1.75;1.30;;;16.40;54.80;;;;;;5074660;28;20021;-73
2021/04/01 11:20:34;;;;;;;2.10;1.42;;;16.40;54.70;;;;;;5075980;28;20025;-74
2021/04/01 11:23:03;;;;;;;1.55;1.15;;;16.60;54.60;;;;;;5076058;28;20446;-74
2021/04/01 11:25:29;;;;;;;2.05;1.23;;;16.70;54.30;;;;;;5074240;28;20098;-73
2021/04/01 11:27:55;;;;;;;2.78;1.40;;;16.70;54.20;;;;;;5074957;28;20469;-73
2021/04/01 11:30:22;;;;;;;1.75;1.17;;;16.90;54.20;;;;;;5075338;28;20058;-73
2021/04/01 11:32:54;;;;;;;1.98;1.23;;;16.90;54.10;;;;;;5075260;28;20016;-73
2021/04/01 11:35:22;;;;;;;1.55;1.02;;;17.00;54.10;;;;;;5074066;28;20017;-73
2021/04/01 11:37:50;;;;;;;1.65;1.30;;;17.00;54.00;;;;;;5073943;28;20035;-74
2021/04/01 11:40:16;;;;;;;1.13;1.00;;;17.20;53.90;;;;;;5075047;28;20021;-73
2021/04/01 11:42:55;;;;;;;1.35;1.02;;;17.30;53.80;;;;;;5075573;28;20489;-74
2021/04/01 11:45:36;;;;;;;1.77;1.00;;;17.20;53.70;;;;;;5074985;28;20029;-74
2021/04/01 11:48:04;;;;;;;1.10;1.02;;;17.20;54.00;;;;;;5073535;28;20391;-74
2021/04/01 11:50:30;;;;;;;1.90;1.30;;;17.20;53.90;;;;;;5075479;28;20070;-75
2021/04/01 11:53:01;;;;;;;1.55;1.13;;;17.10;53.80;;;;;;5073592;28;20067;-74
2021/04/01 11:55:27;;;;;;;3.80;1.20;;;17.00;54.10;;;;;;5074947;28;20025;-74
2021/04/01 11:57:53;;;;;;;1.92;1.30;;;16.90;54.10;;;;;;5073617;28;20071;-75
2021/04/01 12:00:33;;;;;;;2.22;1.60;;;17.00;54.10;;;;;;5074833;28;20504;-75
2021/04/01 12:03:12;;;;;;;1.95;1.42;;;16.90;53.90;;;;;;5075181;28;20111;-74
2021/04/01 12:05:44;;;;;;;2.55;1.35;;;16.70;54.10;;;;;;5074647;28;20115;-74
2021/04/01 12:08:10;;;;;;;2.97;1.10;;;16.80;54.20;;;;;;5074604;28;20048;-74
2021/04/01 12:10:36;;;;;;;1.75;1.23;;;16.90;54.00;;;;;;5074868;28;20060;-74
2021/04/01 12:13:02;;;;;;;1.80;1.30;;;17.00;53.80;;;;;;5074169;28;20047;-74
2021/04/01 12:15:40;;;;;;;1.30;1.02;;;17.10;53.60;;;;;;5074460;28;20543;-75
2021/04/01 12:18:07;;;;;;;1.23;0.95;;;17.30;53.40;;;;;;5073996;28;20093;-74
2021/04/01 12:20:34;;;;;;;0.68;0.63;;;17.40;53.30;;;;;;5074236;28;20351;-75
2021/04/01 12:23:12;;;;;;;1.45;0.90;;;17.50;53.10;;;;;;5073994;28;20094;-74
2021/04/01 12:25:38;;;;;;;1.23;0.77;;;17.70;52.90;;;;;;5072864;28;20370;-74
2021/04/01 12:28:04;;;;;;;1.55;1.10;;;17.90;52.70;;;;;;5073290;28;20083;-76
2021/04/01 12:30:37;;;;;;;0.65;0.65;;;18.20;52.40;;;;;;5074175;28;20016;-75
2021/04/01 12:33:14;;;;;;;1.58;0.68;;;18.30;52.30;;;;;;5073790;28;20052;-75
2021/04/01 12:35:56;;;;;;;1.35;0.90;;;18.30;52.20;;;;;;5072837;28;20024;-74
2021/04/01 12:38:38;;;;;;;1.15;0.82;;;18.30;52.40;;;;;;5074542;28;20020;-74
2021/04/01 12:41:06;;;;;;;1.98;0.90;;;18.30;52.50;;;;;;5073913;28;20017;-74
2021/04/01 12:43:39;;;;;;;0.82;0.80;;;18.20;52.50;;;;;;5071897;28;20032;-74
2021/04/01 12:46:06;;;;;;;0.63;0.52;;;18.20;52.50;;;;;;5072501;28;20035;-75
2021/04/01 12:48:39;;;;;;;1.35;0.63;;;18.10;52.50;;;;;;5073847;28;20017;-75
2021/04/01 12:51:07;;;;;;;1.23;0.80;;;18.20;52.60;;;;;;5073781;28;20058;-75
2021/04/01 12:53:33;;;;;;;0.75;0.50;;;18.30;52.50;;;;;;5072425;28;20017;-74
2021/04/01 12:56:15;;;;;;;0.60;0.60;;;18.40;52.30;;;;;;5073558;28;20021;-74
2021/04/01 12:58:54;;;;;;;1.42;0.70;;;18.70;52.00;;;;;;5074110;28;20016;-75
2021/04/01 13:01:27;;;;;;;1.88;1.00;;;18.70;51.90;;;;;;5072250;28;20377;-73
2021/04/01 13:03:53;;;;;;;0.60;0.60;;;18.70;51.70;;;;;;5073549;28;20082;-74
2021/04/01 13:11:45;;;;;;;1.27;0.75;;;18.80;51.80;;;;;;5073693;28;20454;-75
2021/04/01 13:14:11;;;;;;;1.27;0.60;;;19.10;51.50;;;;;;5072004;28;20472;-74
2021/04/01 13:16:37;;;;;;;1.27;0.82;;;19.20;51.10;;;;;;5073320;28;20036;-75
2021/04/01 13:19:02;;;;;;;2.53;0.82;;;19.20;51.10;;;;;;5073251;28;20035;-76
2021/04/01 13:21:33;;;;;;;0.82;0.82;;;19.20;50.80;;;;;;5073443;28;20095;-75
2021/04/01 13:24:20;;;;;;;2.30;1.40;;;18.90;51.00;;;;;;5070950;28;20036;-79
2021/04/01 13:26:46;;;;;;;2.65;1.05;;;18.90;50.70;;;;;;5073189;28;20477;-75
2021/04/01 13:29:13;;;;;;;2.45;1.38;;;18.60;50.80;;;;;;5071918;28;20038;-75
2021/04/01 13:31:55;;;;;;;2.53;1.13;;;18.40;51.00;;;;;;5073200;28;20027;-79
2021/04/01 13:37:05;;;;;;;0.88;0.70;;;18.20;50.80;;;;;;5073534;28;20020;-76
2021/04/01 13:39:52;;;;;;;0.70;0.50;;;18.10;51.00;;;;;;5073637;28;20024;-76
2021/04/01 13:42:20;;;;;;;1.92;0.80;;;18.10;50.80;;;;;;5072730;28;20028;-76
2021/04/01 13:47:12;;;;;;;1.23;0.50;;;18.60;50.10;;;;;;5073283;28;20031;-73
2021/04/01 13:49:39;;;;;;;1.98;0.70;;;18.80;49.70;;;;;;5072954;28;20025;-74
2021/04/01 13:52:20;;;;;;;0.75;0.47;;;19.00;49.40;;;;;;5072941;28;20134;-73
2021/04/01 13:54:50;;;;;;;0.80;0.77;;;19.00;49.30;;;;;;5071631;28;20028;-75
2021/04/01 13:57:59;;;;;;;1.42;0.43;;;19.00;49.30;;;;;;5073303;28;20194;-74
2021/04/01 14:11:28;;;;;;;1.95;0.88;;;18.70;49.20;;;;;;5073481;28;20041;-73
2021/04/01 14:13:53;;;;;;;1.45;0.50;;;18.70;49.00;;;;;;5071361;28;20166;-74
2021/04/01 14:16:19;;;;;;;2.05;0.60;;;18.60;49.00;;;;;;5072346;28;20025;-74
2021/04/01 14:18:48;;;;;;;1.10;0.93;;;18.70;48.70;;;;;;5071373;28;20024;-75
2021/04/01 14:21:21;;;;;;;0.98;0.45;;;18.50;48.60;;;;;;5072392;28;20017;-74
2021/04/01 14:23:49;;;;;;;0.82;0.50;;;18.20;48.80;;;;;;5072416;28;20033;-75
2021/04/01 14:28:41;;;;;;;1.10;0.60;;;18.30;48.40;;;;;;5072869;28;20032;-74
2021/04/01 14:31:09;;;;;;;0.82;0.40;;;18.30;48.30;;;;;;5073103;28;20031;-74
2021/04/01 14:33:36;;;;;;;0.65;0.50;;;18.30;48.40;;;;;;5071278;28;20032;-75
2021/04/01 14:36:02;;;;;;;0.30;0.30;;;18.30;48.10;;;;;;5074721;28;20442;-75
2021/04/01 14:38:28;;;;;;;0.35;0.35;;;18.10;48.20;;;;;;5076266;28;20066;-75
2021/04/01 14:41:14;;;;;;;0.77;0.40;;;18.00;48.30;;;;;;5075704;28;20059;-74
2021/04/01 14:46:14;;;;;;;0.70;0.55;;;18.00;47.80;;;;;;5076221;28;20421;-75
2021/04/01 14:48:41;;;;;;;1.02;0.40;;;17.90;48.10;;;;;;5074778;28;20016;-72
2021/04/01 14:51:07;;;;;;;1.20;0.70;;;17.80;47.90;;;;;;5074691;28;20028;-73
2021/04/01 14:53:46;;;;;;;0.63;0.47;;;17.70;48.40;;;;;;5075961;28;20049;-73